createdAt,value
2022-11-20T00:00:48.635Z,17.10
2022-11-20T00:03:52.808Z,17.23
2022-11-20T00:06:54.683Z,17.92
2022-11-20T00:09:56.518Z,17.65
2022-11-20T00:13:01.164Z,16.67
2022-11-20T00:16:04.844Z,17.35
2022-11-20T00:19:07.134Z,17.35
2022-11-20T00:22:08.873Z,18.00
2022-11-20T00:25:10.818Z,17.45
2022-11-20T00:28:12.675Z,18.52
2022-11-20T00:31:16.410Z,17.75
2022-11-20T00:34:18.228Z,18.10
2022-11-20T00:37:20.070Z,19.25
2022-11-20T00:40:21.883Z,18.20
2022-11-20T00:43:23.738Z,17.63
2022-11-20T00:46:27.759Z,19.55
2022-11-20T00:49:29.444Z,18.73
2022-11-20T00:52:31.194Z,18.58
2022-11-20T00:55:33.157Z,17.75
2022-11-20T00:58:37.476Z,17.85
2022-11-20T01:01:39.632Z,18.60
2022-11-20T01:04:41.355Z,19.67
2022-11-20T01:07:43.124Z,17.80
2022-11-20T01:10:44.989Z,18.27
2022-11-20T01:13:48.132Z,17.85
2022-11-20T01:16:52.178Z,17.55
2022-11-20T01:19:53.877Z,18.75
2022-11-20T01:22:55.572Z,18.08
2022-11-20T01:25:57.325Z,18.10
2022-11-20T01:29:00.666Z,18.38
2022-11-20T01:35:04.254Z,18.23
2022-11-20T01:38:05.997Z,17.80
2022-11-20T01:41:08.961Z,16.98
2022-11-20T01:44:13.376Z,18.08
2022-11-20T01:47:20.850Z,17.90
2022-11-20T01:50:29.929Z,17.58
2022-11-20T01:53:36.089Z,18.50
2022-11-20T01:56:42.432Z,18.48
2022-11-20T01:59:53.059Z,18.35
2022-11-20T02:02:58.404Z,16.63
2022-11-20T02:06:16.199Z,18.60
2022-11-20T02:09:18.250Z,17.17
2022-11-20T02:12:39.230Z,18.23
2022-11-20T02:15:42.024Z,18.17
2022-11-20T02:18:45.650Z,19.30
2022-11-20T02:22:14.511Z,18.83
2022-11-20T02:25:17.202Z,19.48
2022-11-20T02:28:19.496Z,20.80
2022-11-20T02:31:21.272Z,19.90
2022-11-20T02:34:23.067Z,19.33
2022-11-20T02:37:31.648Z,19.85
2022-11-20T02:40:33.579Z,19.33
2022-11-20T02:43:35.342Z,18.33
2022-11-20T02:46:37.126Z,19.23
2022-11-20T02:49:38.796Z,18.92
2022-11-20T02:52:40.522Z,18.67
2022-11-20T02:55:42.208Z,19.45
2022-11-20T02:58:43.969Z,18.70
2022-11-20T03:01:46.108Z,19.60
2022-11-20T03:04:48.117Z,18.77
2022-11-20T03:07:50.031Z,18.77
2022-11-20T03:10:51.732Z,19.25
2022-11-20T03:13:53.520Z,19.02
2022-11-20T03:16:56.287Z,19.58
2022-11-20T03:19:57.978Z,19.33
2022-11-20T03:22:59.773Z,20.58
2022-11-20T03:26:31.089Z,21.05
2022-11-20T03:29:33.414Z,21.20
2022-11-20T03:32:35.095Z,20.30
2022-11-20T03:35:36.791Z,22.40
2022-11-20T03:38:39.334Z,21.38
2022-11-20T03:41:43.131Z,21.30
2022-11-20T03:44:44.909Z,21.00
2022-11-20T03:47:47.012Z,22.33
2022-11-20T03:50:48.937Z,21.92
2022-11-20T03:53:52.382Z,22.52
2022-11-20T03:59:56.002Z,20.65
2022-11-20T04:03:02.258Z,21.80
2022-11-20T04:06:09.560Z,22.77
2022-11-20T04:09:11.234Z,21.58
2022-11-20T04:12:13.806Z,21.88
2022-11-20T04:15:15.774Z,22.47
2022-11-20T04:18:17.464Z,21.10
2022-11-20T04:21:19.419Z,23.13
2022-11-20T04:24:21.119Z,21.27
2022-11-20T04:27:22.994Z,21.17
2022-11-20T04:30:24.750Z,22.42
2022-11-20T04:33:27.944Z,21.80
2022-11-20T04:36:31.737Z,23.23
2022-11-20T04:39:33.455Z,21.65
2022-11-20T04:42:35.356Z,22.63
2022-11-20T04:45:37.372Z,22.52
2022-11-20T04:48:39.117Z,23.10
2022-11-20T04:51:40.813Z,22.02
2022-11-20T04:54:42.514Z,23.90
2022-11-20T04:57:44.436Z,22.58
2022-11-20T05:00:46.257Z,23.48
2022-11-20T05:03:48.475Z,23.40
2022-11-20T05:06:51.539Z,24.08
2022-11-20T05:09:53.460Z,23.17
2022-11-20T05:12:56.011Z,22.63
2022-11-20T05:16:09.630Z,22.05
2022-11-20T05:19:11.853Z,20.83
2022-11-20T05:22:13.552Z,21.17
2022-11-20T05:25:15.415Z,20.85
2022-11-20T05:28:17.095Z,22.75
2022-11-20T05:31:26.603Z,21.17
2022-11-20T05:34:29.547Z,21.35
2022-11-20T05:37:31.296Z,22.17
2022-11-20T05:40:33.350Z,21.85
2022-11-20T05:43:40.710Z,22.38
2022-11-20T05:46:42.660Z,22.60
2022-11-20T05:49:44.396Z,23.60
2022-11-20T05:52:46.123Z,21.65
2022-11-20T05:55:47.822Z,23.33
2022-11-20T05:58:50.404Z,22.83
2022-11-20T06:01:52.104Z,24.17
2022-11-20T06:04:53.809Z,23.15
2022-11-20T06:07:55.504Z,22.92
2022-11-20T06:10:57.380Z,21.55
2022-11-20T06:14:00.383Z,23.05
2022-11-20T06:17:02.163Z,23.02
2022-11-20T06:20:04.152Z,24.52
2022-11-20T06:23:05.872Z,24.00
2022-11-20T06:26:10.685Z,23.20
2022-11-20T06:29:12.730Z,23.25
2022-11-20T06:32:14.674Z,24.23
2022-11-20T06:35:16.476Z,23.83
2022-11-20T06:38:18.252Z,23.27
2022-11-20T06:41:21.801Z,22.92
2022-11-20T06:44:23.659Z,23.88
2022-11-20T06:47:25.398Z,23.85
2022-11-20T06:50:27.309Z,22.73
2022-11-20T06:53:29.289Z,22.67
2022-11-20T06:56:31.210Z,22.60
2022-11-20T06:59:32.878Z,22.13
2022-11-20T07:02:34.597Z,21.65
2022-11-20T07:05:37.079Z,22.38
2022-11-20T07:08:39.202Z,21.60
2022-11-20T07:11:41.567Z,21.83
2022-11-20T07:14:43.978Z,21.73
2022-11-20T07:17:46.086Z,22.17
2022-11-20T07:20:47.805Z,20.48
2022-11-20T07:23:49.701Z,23.05
2022-11-20T07:26:51.454Z,21.73
2022-11-20T07:29:53.167Z,22.58
2022-11-20T07:32:56.423Z,22.85
2022-11-20T07:36:01.036Z,21.15
2022-11-20T07:39:03.015Z,22.17
2022-11-20T07:42:04.795Z,22.38
2022-11-20T07:45:06.968Z,22.02
2022-11-20T07:48:08.797Z,21.80
2022-11-20T07:51:10.827Z,21.92
2022-11-20T07:54:12.729Z,22.23
2022-11-20T07:57:14.530Z,22.33
2022-11-20T08:00:16.568Z,21.75
2022-11-20T08:03:24.383Z,23.05
2022-11-20T08:06:26.748Z,22.20
2022-11-20T08:09:29.307Z,21.27
2022-11-20T08:12:49.837Z,21.47
2022-11-20T08:15:52.322Z,19.42
2022-11-20T08:18:54.289Z,20.93
2022-11-20T08:21:56.635Z,21.23
2022-11-20T08:24:58.777Z,20.67
2022-11-20T08:28:08.944Z,20.77
2022-11-20T08:31:17.559Z,21.83
2022-11-20T08:34:19.433Z,20.92
2022-11-20T08:37:21.169Z,21.60
2022-11-20T08:40:22.904Z,21.42
2022-11-20T08:43:24.942Z,23.38
2022-11-20T08:46:29.244Z,22.52
2022-11-20T08:49:31.093Z,23.55
2022-11-20T08:52:35.720Z,23.80
2022-11-20T08:55:41.328Z,22.98
2022-11-20T08:59:16.075Z,21.38
2022-11-20T09:02:04.744Z,22.25
2022-11-20T09:05:07.317Z,21.30
2022-11-20T09:08:09.344Z,19.97
2022-11-20T09:11:11.532Z,22.52
2022-11-20T09:14:14.133Z,22.10
2022-11-20T09:17:16.245Z,21.03
2022-11-20T09:20:17.934Z,21.92
2022-11-20T09:23:19.688Z,23.10
2022-11-20T09:26:21.538Z,22.08
2022-11-20T09:29:23.670Z,22.15
2022-11-20T09:32:25.589Z,22.25
2022-11-20T09:35:27.379Z,22.17
2022-11-20T09:38:29.313Z,21.92
2022-11-20T09:41:37.159Z,22.05
2022-11-20T09:45:16.182Z,22.48
2022-11-20T09:48:59.778Z,20.77
2022-11-20T09:52:34.948Z,23.35
2022-11-20T09:55:38.131Z,22.95
2022-11-20T09:58:52.660Z,22.17
2022-11-20T10:01:56.501Z,21.77
2022-11-20T10:05:19.289Z,23.52
2022-11-20T10:08:23.321Z,23.67
2022-11-20T10:11:42.762Z,22.13
2022-11-20T10:14:57.854Z,24.05
2022-11-20T10:18:08.079Z,24.17
2022-11-20T10:21:15.456Z,22.58
2022-11-20T10:24:37.768Z,21.38
2022-11-20T10:28:21.746Z,23.95
2022-11-20T10:31:36.475Z,22.00
2022-11-20T10:34:43.598Z,22.75
2022-11-20T10:37:49.696Z,23.98
2022-11-20T10:41:21.361Z,23.83
2022-11-20T10:44:52.341Z,23.40
2022-11-20T10:48:13.369Z,21.00
2022-11-20T10:51:38.505Z,19.63
2022-11-20T10:54:59.981Z,21.52
2022-11-20T10:58:01.637Z,21.67
2022-11-20T11:01:14.690Z,23.52
2022-11-20T11:04:45.304Z,23.30
2022-11-20T11:07:51.359Z,21.25
2022-11-20T11:10:57.851Z,23.75
2022-11-20T11:14:15.633Z,23.50
2022-11-20T11:17:35.288Z,22.23
2022-11-20T11:20:37.437Z,20.98
2022-11-20T11:23:41.645Z,21.47
2022-11-20T11:26:57.304Z,20.70
2022-11-20T11:30:15.074Z,20.70
2022-11-20T11:33:26.179Z,20.73
2022-11-20T11:36:28.082Z,20.45
2022-11-20T11:39:31.371Z,21.02
2022-11-20T11:42:33.724Z,20.02
2022-11-20T11:45:35.519Z,19.83
2022-11-20T11:48:37.551Z,19.30
2022-11-20T11:51:48.758Z,20.55
2022-11-20T11:54:54.824Z,18.42
2022-11-20T11:58:18.657Z,17.50
2022-11-20T12:04:44.537Z,11.50
2022-11-20T12:08:02.764Z,9.45
2022-11-20T12:11:31.073Z,7.18
2022-11-20T12:14:48.425Z,6.13
2022-11-20T12:17:50.198Z,5.88
2022-11-20T12:21:14.961Z,5.53
2022-11-20T12:24:34.923Z,5.55
2022-11-20T12:28:13.863Z,4.65
2022-11-20T12:31:27.637Z,4.03
2022-11-20T12:34:41.582Z,4.28
2022-11-20T12:38:20.302Z,3.65
2022-11-20T12:42:00.813Z,3.75
2022-11-20T12:45:11.091Z,3.53
2022-11-20T12:48:35.430Z,3.30
2022-11-20T12:52:00.790Z,3.15
2022-11-20T12:55:17.081Z,2.92
2022-11-20T12:58:37.494Z,3.78
2022-11-20T13:01:53.657Z,2.50
2022-11-20T13:04:55.420Z,3.08
2022-11-20T13:07:59.111Z,2.67
2022-11-20T13:11:04.613Z,3.05
2022-11-20T13:14:16.195Z,3.38
2022-11-20T13:17:40.798Z,2.33
2022-11-20T13:20:47.725Z,2.50
2022-11-20T13:23:49.928Z,1.60
2022-11-20T13:27:06.767Z,2.28
2022-11-20T13:30:19.137Z,1.92
2022-11-20T13:33:26.909Z,1.75
2022-11-20T13:36:31.243Z,1.90
2022-11-20T13:39:37.436Z,1.65
2022-11-20T13:42:45.405Z,1.65
2022-11-20T13:46:06.026Z,1.65
2022-11-20T13:49:24.512Z,1.70
2022-11-20T13:52:52.137Z,1.42
2022-11-20T13:56:19.623Z,2.15
2022-11-20T13:59:43.846Z,2.63
2022-11-20T14:02:54.571Z,5.78
2022-11-20T14:06:03.691Z,3.88
2022-11-20T14:09:05.449Z,2.95
2022-11-20T14:12:18.633Z,3.45
2022-11-20T14:15:35.200Z,3.20
2022-11-20T14:18:37.235Z,2.80
2022-11-20T14:21:39.010Z,2.17
2022-11-20T14:24:40.915Z,2.08
2022-11-20T14:27:45.864Z,2.60
2022-11-20T14:30:51.053Z,2.72
2022-11-20T14:33:56.328Z,2.50
2022-11-20T14:37:03.933Z,2.95
2022-11-20T14:40:24.794Z,2.75
2022-11-20T14:43:30.214Z,2.83
2022-11-20T14:46:33.316Z,2.75
2022-11-20T14:49:36.398Z,2.72
2022-11-20T14:52:38.323Z,2.47
2022-11-20T14:55:40.627Z,3.05
2022-11-20T14:58:42.438Z,2.83
2022-11-20T15:01:57.985Z,3.25
2022-11-20T15:05:02.668Z,3.00
2022-11-20T15:08:10.167Z,3.47
2022-11-20T15:11:26.692Z,3.67
2022-11-20T15:14:31.641Z,4.13
2022-11-20T15:17:37.553Z,3.40
2022-11-20T15:20:39.355Z,3.42
2022-11-20T15:23:41.690Z,3.72
2022-11-20T15:26:44.672Z,4.18
2022-11-20T15:29:46.508Z,3.80
2022-11-20T15:32:48.708Z,3.33
2022-11-20T15:35:50.716Z,3.13
2022-11-20T15:38:52.629Z,3.47
2022-11-20T15:41:54.386Z,2.97
2022-11-20T15:44:56.220Z,3.15
2022-11-20T15:47:58.104Z,3.22
2022-11-20T15:51:25.835Z,2.80
2022-11-20T15:54:27.796Z,2.90
2022-11-20T15:57:29.738Z,2.97
2022-11-20T16:00:31.933Z,2.17
2022-11-20T16:03:33.616Z,2.22
2022-11-20T16:06:35.868Z,2.28
2022-11-20T16:09:37.549Z,2.20
2022-11-20T16:12:58.675Z,2.20
2022-11-20T16:16:09.053Z,1.50
2022-11-20T16:19:13.013Z,1.85
2022-11-20T16:22:14.903Z,2.20
2022-11-20T16:25:17.071Z,1.60
2022-11-20T16:28:19.589Z,1.30
2022-11-20T16:31:22.561Z,1.50
2022-11-20T16:34:24.468Z,1.73
2022-11-20T16:37:29.657Z,2.45
2022-11-20T16:40:31.378Z,2.50
2022-11-20T16:43:33.632Z,1.85
2022-11-20T16:46:35.717Z,1.95
2022-11-20T16:49:37.411Z,2.08
2022-11-20T16:52:39.214Z,2.47
2022-11-20T16:55:43.254Z,2.47
2022-11-20T16:58:46.067Z,3.10
2022-11-20T17:01:48.038Z,3.95
2022-11-20T17:04:50.445Z,3.20
2022-11-20T17:07:52.364Z,3.13
2022-11-20T17:10:54.247Z,3.50
2022-11-20T17:14:00.668Z,3.30
2022-11-20T17:17:02.723Z,3.85
2022-11-20T17:20:04.908Z,3.45
2022-11-20T17:23:06.622Z,3.10
2022-11-20T17:26:16.492Z,3.50
2022-11-20T17:29:21.609Z,3.72
2022-11-20T17:32:23.584Z,3.70
2022-11-20T17:35:25.339Z,3.53
2022-11-20T17:38:27.671Z,4.05
2022-11-20T17:41:30.181Z,3.97
2022-11-20T17:44:31.884Z,3.80
2022-11-20T17:47:36.216Z,4.32
2022-11-20T17:50:38.335Z,3.53
2022-11-20T17:53:42.045Z,3.80
2022-11-20T17:57:03.025Z,3.63
2022-11-20T18:00:05.180Z,3.67
2022-11-20T18:03:07.216Z,3.92
2022-11-20T18:06:13.235Z,3.47
2022-11-20T18:09:15.281Z,3.90
2022-11-20T18:12:17.468Z,3.30
2022-11-20T18:15:19.375Z,3.60
2022-11-20T18:18:21.310Z,4.13
2022-11-20T18:21:24.691Z,4.32
2022-11-20T18:27:28.408Z,3.90
2022-11-20T18:30:30.096Z,3.47
2022-11-20T18:33:32.073Z,4.03
2022-11-20T18:36:33.940Z,3.80
2022-11-20T18:39:36.754Z,3.47
2022-11-20T18:42:56.966Z,3.25
2022-11-20T18:46:04.280Z,2.97
2022-11-20T18:49:05.995Z,2.92
2022-11-20T18:52:08.051Z,2.38
2022-11-20T18:55:11.141Z,2.60
2022-11-20T18:58:12.860Z,2.80
2022-11-20T19:01:14.770Z,2.45
2022-11-20T19:04:18.013Z,2.15
2022-11-20T19:07:19.822Z,1.90
2022-11-20T19:10:24.322Z,2.40
2022-11-20T19:13:30.478Z,1.90
2022-11-20T19:16:32.874Z,2.33
2022-11-20T19:19:35.416Z,2.30
2022-11-20T19:22:37.173Z,1.73
2022-11-20T19:25:38.862Z,1.83
2022-11-20T19:28:40.699Z,1.80
2022-11-20T19:31:43.322Z,2.17
2022-11-20T19:34:45.473Z,1.80
2022-11-20T19:37:47.262Z,1.40
2022-11-20T19:40:49.241Z,1.75
2022-11-20T19:43:51.100Z,1.92
2022-11-20T19:46:52.966Z,2.00
2022-11-20T19:49:54.896Z,1.90
2022-11-20T19:52:58.858Z,1.42
2022-11-20T19:59:11.403Z,2.42
2022-11-20T20:02:13.387Z,2.30
2022-11-20T20:05:15.263Z,2.90
2022-11-20T20:08:17.329Z,2.22
2022-11-20T20:11:21.972Z,2.60
2022-11-20T20:14:23.983Z,2.72
2022-11-20T20:17:25.762Z,3.45
2022-11-20T20:20:27.520Z,3.60
2022-11-20T20:23:29.218Z,3.00
2022-11-20T20:26:32.255Z,3.13
2022-11-20T20:29:34.114Z,2.92
2022-11-20T20:32:36.219Z,2.85
2022-11-20T20:35:42.216Z,3.15
2022-11-20T20:38:45.933Z,2.60
2022-11-20T20:41:47.665Z,3.70
2022-11-20T20:45:07.825Z,3.22
2022-11-20T20:48:09.582Z,4.47
2022-11-20T20:51:11.472Z,3.00
2022-11-20T20:54:13.252Z,3.45
2022-11-20T20:57:15.883Z,2.90
2022-11-20T21:00:17.770Z,3.70
2022-11-20T21:03:20.005Z,3.53
2022-11-20T21:06:22.057Z,3.40
2022-11-20T21:09:24.202Z,3.30
2022-11-20T21:12:26.121Z,3.63
2022-11-20T21:15:27.893Z,3.25
2022-11-20T21:18:30.087Z,4.47
2022-11-20T21:21:50.479Z,4.38
2022-11-20T21:24:52.422Z,3.90
2022-11-20T21:27:54.161Z,3.58
2022-11-20T21:31:19.462Z,3.83
2022-11-20T21:34:22.365Z,3.53
2022-11-20T21:37:24.672Z,3.88
2022-11-20T21:40:26.385Z,3.92
2022-11-20T21:43:28.756Z,2.88
2022-11-20T21:46:32.197Z,3.88
2022-11-20T21:52:35.622Z,3.92
2022-11-20T21:55:37.330Z,3.25
2022-11-20T21:58:41.017Z,3.97
2022-11-20T22:01:42.886Z,4.57
2022-11-20T22:04:44.680Z,4.40
2022-11-20T22:07:46.588Z,4.10
2022-11-20T22:10:59.847Z,4.50
2022-11-20T22:14:20.268Z,4.15
2022-11-20T22:17:42.026Z,4.30
2022-11-20T22:20:44.089Z,4.03
2022-11-20T22:23:46.334Z,4.10
2022-11-20T22:26:48.719Z,3.70
2022-11-20T22:29:50.402Z,4.18
2022-11-20T22:32:56.408Z,4.07
2022-11-20T22:36:25.771Z,3.65
2022-11-20T22:39:27.631Z,4.03
2022-11-20T22:42:29.326Z,4.10
2022-11-20T22:45:31.094Z,3.60
2022-11-20T22:48:34.349Z,3.78
2022-11-20T22:51:39.577Z,4.13
2022-11-20T22:54:41.303Z,3.58
2022-11-20T22:57:43.021Z,3.80
2022-11-20T23:00:45.065Z,3.50
2022-11-20T23:03:49.002Z,3.58
2022-11-20T23:06:51.009Z,3.95
2022-11-20T23:09:52.822Z,3.65
2022-11-20T23:12:54.853Z,4.55
2022-11-20T23:16:02.518Z,3.88
2022-11-20T23:19:10.627Z,3.42
2022-11-20T23:22:12.533Z,3.20
2022-11-20T23:25:14.228Z,3.97
2022-11-20T23:28:15.903Z,4.25
2022-11-20T23:31:17.968Z,3.55
2022-11-20T23:34:19.998Z,3.67
2022-11-20T23:37:21.795Z,3.83
2022-11-20T23:40:23.551Z,4.28
2022-11-20T23:43:25.916Z,3.88
2022-11-20T23:46:27.943Z,3.75
2022-11-20T23:49:29.617Z,3.38
2022-11-20T23:52:31.425Z,3.92
2022-11-20T23:55:33.954Z,3.72
2022-11-20T23:58:38.626Z,3.80
